Time;durP1;ratioP1;P1;durP2;ratioP2;P2;SDS_P1;SDS_P2;PMS_P1;PMS_P2;Temp;Humidity;BMP_temperature;BMP_pressure;BME280_temperature;BME280_humidity;BME280_pressure;Samples;Min_cycle;Max_cycle;Signal;HPM_P1;HPM_P2
2022/10/06 04:01:14;;;;;;;9.10;6.07;;;12.00;99.90;;;;;;5585473;23;20826;-76
2022/10/06 04:03:41;;;;;;;7.03;6.20;;;12.00;99.90;;;;;;4918110;29;20450;-76
2022/10/06 04:06:16;;;;;;;10.13;5.50;;;12.10;99.90;;;;;;4929985;29;20461;-76
2022/10/06 04:08:43;;;;;;;6.33;5.40;;;12.10;99.90;;;;;;4930398;29;20446;-76
2022/10/06 04:11:13;;;;;;;6.63;5.00;;;12.10;99.90;;;;;;4921857;29;20489;-76
2022/10/06 04:13:44;;;;;;;7.30;4.80;;;12.10;99.90;;;;;;4910325;29;21258;-76
2022/10/06 04:16:16;;;;;;;7.53;5.47;;;12.10;99.90;;;;;;4910049;29;20467;-76
2022/10/06 04:18:45;;;;;;;5.27;4.77;;;12.10;99.90;;;;;;4912012;29;20458;-76
2022/10/06 04:21:12;;;;;;;8.40;4.70;;;12.20;99.90;;;;;;4911231;29;21274;-76
2022/10/06 04:23:39;;;;;;;7.87;4.87;;;12.20;99.90;;;;;;4911049;29;20463;-76
2022/10/06 04:26:09;;;;;;;8.33;4.93;;;12.20;99.90;;;;;;4910680;29;20459;-76
2022/10/06 04:28:37;;;;;;;7.90;5.13;;;12.30;99.90;;;;;;4911851;29;20815;-77
2022/10/06 04:31:06;;;;;;;16.40;4.90;;;12.30;99.90;;;;;;4910802;29;20801;-76
2022/10/06 04:33:34;;;;;;;15.57;4.67;;;12.40;99.90;;;;;;4910932;29;20522;-77
2022/10/06 04:36:03;;;;;;;8.97;5.47;;;12.30;99.90;;;;;;4910704;29;20455;-77
2022/10/06 04:38:32;;;;;;;6.03;4.80;;;12.40;99.90;;;;;;4910769;29;20463;-69
2022/10/06 04:41:05;;;;;;;8.60;4.93;;;12.40;99.90;;;;;;4910924;29;20479;-71
2022/10/06 04:43:31;;;;;;;5.43;4.50;;;12.40;99.90;;;;;;4912266;29;20447;-87
2022/10/06 04:45:59;;;;;;;15.93;5.17;;;12.40;99.90;;;;;;4914873;29;20474;-88
2022/10/06 04:48:26;;;;;;;7.60;5.03;;;12.40;99.90;;;;;;4915592;29;20447;-88
2022/10/06 04:50:56;;;;;;;11.13;5.07;;;12.40;99.90;;;;;;4914570;29;20487;-87
2022/10/06 04:53:23;;;;;;;7.50;4.90;;;12.50;99.90;;;;;;4914496;29;20491;-88
2022/10/06 04:55:59;;;;;;;9.63;5.20;;;12.50;99.90;;;;;;4914587;29;21154;-88
2022/10/06 04:58:27;;;;;;;4.97;4.50;;;12.50;99.90;;;;;;4914420;29;20467;-87
2022/10/06 05:00:54;;;;;;;10.13;4.63;;;12.50;99.90;;;;;;4914437;29;20479;-87
2022/10/06 05:03:21;;;;;;;6.80;4.83;;;12.50;99.90;;;;;;4914377;29;20486;-86
2022/10/06 05:05:47;;;;;;;6.80;4.40;;;12.50;99.90;;;;;;4913627;29;20468;-86
2022/10/06 05:08:16;;;;;;;6.07;5.03;;;12.60;99.90;;;;;;4913645;29;20468;-89
2022/10/06 05:10:42;;;;;;;6.47;5.23;;;12.60;99.90;;;;;;4913579;29;20606;-87
2022/10/06 05:13:11;;;;;;;9.53;5.13;;;12.60;99.90;;;;;;4914174;29;20571;-87
2022/10/06 05:15:38;;;;;;;10.40;5.80;;;12.60;99.90;;;;;;4912728;29;20902;-87
2022/10/06 05:18:05;;;;;;;11.23;6.10;;;12.60;99.90;;;;;;4911944;29;20468;-87
2022/10/06 05:20:32;;;;;;;10.97;7.50;;;12.70;99.90;;;;;;4910846;29;20487;-88
2022/10/06 05:22:58;;;;;;;10.80;7.73;;;12.70;99.90;;;;;;4912535;29;20475;-84
2022/10/06 05:25:27;;;;;;;14.03;7.50;;;12.70;99.90;;;;;;4912706;29;20493;-87
2022/10/06 05:27:54;;;;;;;11.13;7.87;;;12.70;99.90;;;;;;4910934;29;20463;-88
2022/10/06 05:30:21;;;;;;;15.07;7.43;;;12.80;99.90;;;;;;4911794;29;20475;-87
2022/10/06 05:32:49;;;;;;;16.10;8.37;;;12.80;99.90;;;;;;4912656;29;20463;-87
2022/10/06 05:35:17;;;;;;;10.70;7.97;;;12.80;99.90;;;;;;4912024;29;20577;-87
2022/10/06 05:37:44;;;;;;;14.17;8.83;;;12.80;99.90;;;;;;4912723;29;20963;-83
2022/10/06 05:40:11;;;;;;;11.60;8.60;;;12.80;99.90;;;;;;4913796;29;20464;-83
2022/10/06 05:42:39;;;;;;;12.67;7.30;;;12.80;99.90;;;;;;4912653;29;21200;-86
2022/10/06 05:45:07;;;;;;;10.43;6.40;;;12.90;99.90;;;;;;4911644;29;21066;-88
2022/10/06 05:47:34;;;;;;;10.73;6.00;;;12.90;99.90;;;;;;4912420;29;20538;-87
2022/10/06 05:50:02;;;;;;;7.30;5.90;;;12.90;99.90;;;;;;4912612;29;20467;-87
2022/10/06 05:52:29;;;;;;;11.07;6.07;;;12.90;99.90;;;;;;4912599;29;20603;-87
2022/10/06 05:54:55;;;;;;;11.93;5.90;;;13.00;99.90;;;;;;4911740;29;20493;-85
2022/10/06 05:57:22;;;;;;;11.03;5.90;;;12.90;99.90;;;;;;4912135;29;20455;-87
2022/10/06 05:59:50;;;;;;;11.53;7.83;;;12.90;99.90;;;;;;4912422;29;20821;-86
2022/10/06 06:02:17;;;;;;;7.43;6.00;;;13.00;99.90;;;;;;4911784;29;20501;-87
2022/10/06 06:04:44;;;;;;;8.30;6.93;;;13.00;99.90;;;;;;4912062;29;20475;-87
2022/10/06 06:07:11;;;;;;;8.50;6.10;;;13.00;99.90;;;;;;4912295;29;20457;-87
2022/10/06 06:09:37;;;;;;;7.57;6.00;;;13.00;99.90;;;;;;4911455;29;20463;-87
2022/10/06 06:12:04;;;;;;;13.27;6.40;;;13.10;99.90;;;;;;4909425;29;20491;-87
2022/10/06 06:17:17;;;;;;;10.27;6.17;;;13.10;99.90;;;;;;4909200;29;20451;-87
2022/10/06 06:19:44;;;;;;;6.90;6.20;;;13.10;99.90;;;;;;4911106;29;20968;-87
2022/10/06 06:22:10;;;;;;;9.00;5.43;;;13.20;99.90;;;;;;4908722;29;21012;-87
2022/10/06 06:24:37;;;;;;;9.77;5.77;;;13.20;99.90;;;;;;4909863;29;21254;-87
2022/10/06 06:27:04;;;;;;;6.97;5.50;;;13.20;99.90;;;;;;4909368;29;20964;-87
2022/10/06 06:29:31;;;;;;;10.23;6.40;;;13.30;99.90;;;;;;4910000;29;20477;-87
2022/10/06 06:31:57;;;;;;;8.93;6.00;;;13.30;99.90;;;;;;4909326;29;20609;-87
2022/10/06 06:34:26;;;;;;;7.43;5.93;;;13.30;99.90;;;;;;4908969;29;20588;-87
2022/10/06 06:36:56;;;;;;;7.00;5.93;;;13.30;99.90;;;;;;4909854;29;20463;-88
2022/10/06 06:39:23;;;;;;;7.90;6.37;;;13.30;99.90;;;;;;4912743;29;20960;-87
2022/10/06 06:41:50;;;;;;;10.37;6.83;;;13.30;99.90;;;;;;4916161;29;20491;-87
2022/10/06 06:44:17;;;;;;;7.43;6.10;;;13.30;99.90;;;;;;4915105;29;20471;-87
2022/10/06 06:46:46;;;;;;;8.00;5.73;;;13.40;99.90;;;;;;4916705;29;20475;-88
2022/10/06 06:49:13;;;;;;;7.57;5.30;;;13.40;99.90;;;;;;4915994;29;20471;-87
2022/10/06 06:51:42;;;;;;;9.07;5.30;;;13.40;99.90;;;;;;4915727;29;20497;-87
2022/10/06 06:54:11;;;;;;;8.20;5.53;;;13.40;99.90;;;;;;4915568;29;20499;-87
2022/10/06 06:56:38;;;;;;;11.90;7.10;;;13.40;99.90;;;;;;4916171;29;20530;-87
2022/10/06 06:59:10;;;;;;;11.63;7.53;;;13.50;99.90;;;;;;4915523;29;20506;-88
2022/10/06 07:01:43;;;;;;;12.80;7.07;;;13.50;99.90;;;;;;4915619;29;20505;-87
2022/10/06 07:04:10;;;;;;;8.90;6.70;;;13.50;99.90;;;;;;4915251;29;20455;-87
2022/10/06 07:06:38;;;;;;;8.60;6.77;;;13.60;99.90;;;;;;4915359;29;20784;-87
2022/10/06 07:09:08;;;;;;;10.40;6.10;;;13.60;99.90;;;;;;4915619;29;20463;-87
2022/10/06 07:11:37;;;;;;;13.83;6.73;;;13.60;99.90;;;;;;4915804;29;20482;-88
2022/10/06 07:14:05;;;;;;;7.00;6.00;;;13.60;99.90;;;;;;4914581;29;20510;-87
2022/10/06 07:25:16;;;;;;;11.60;7.00;;;13.70;99.90;;;;;;4914572;29;20430;-87
2022/10/06 07:27:45;;;;;;;9.00;7.30;;;13.80;99.90;;;;;;4915555;29;20454;-87
2022/10/06 07:30:17;;;;;;;9.13;7.07;;;13.80;99.90;;;;;;4915873;29;20463;-87
2022/10/06 07:32:45;;;;;;;10.90;7.67;;;13.80;99.90;;;;;;4916100;29;20561;-87
2022/10/06 07:35:12;;;;;;;12.70;8.03;;;13.90;99.90;;;;;;4914746;29;20507;-87
2022/10/06 07:37:39;;;;;;;19.03;7.93;;;13.90;99.90;;;;;;4915897;29;20459;-87
2022/10/06 07:40:09;;;;;;;13.27;8.47;;;13.90;99.90;;;;;;4915306;29;20471;-87
2022/10/06 07:42:47;;;;;;;18.70;8.80;;;14.00;99.90;;;;;;4915564;29;20545;-87
2022/10/06 07:48:01;;;;;;;13.70;9.30;;;14.10;99.90;;;;;;4915833;29;20442;-87
2022/10/06 07:50:28;;;;;;;14.10;8.60;;;14.10;99.90;;;;;;4913784;29;20464;-87
2022/10/06 07:52:55;;;;;;;15.30;9.10;;;14.20;99.90;;;;;;4913637;29;20475;-87
2022/10/06 07:55:23;;;;;;;15.37;8.50;;;14.30;99.90;;;;;;4912556;29;21055;-88
2022/10/06 07:57:51;;;;;;;10.70;7.83;;;14.40;99.90;;;;;;4915271;29;20775;-87
2022/10/06 08:00:21;;;;;;;17.23;10.40;;;14.40;99.90;;;;;;4912307;29;20471;-87
2022/10/06 08:02:48;;;;;;;14.60;9.83;;;14.50;99.90;;;;;;4912849;29;20482;-88
2022/10/06 08:05:15;;;;;;;14.07;8.67;;;14.50;99.90;;;;;;4912996;29;20499;-87
2022/10/06 08:07:42;;;;;;;9.33;7.37;;;14.60;99.90;;;;;;4913436;29;20978;-88
2022/10/06 08:10:09;;;;;;;10.20;6.87;;;14.70;99.90;;;;;;4913436;29;20467;-88
2022/10/06 08:12:39;;;;;;;9.00;6.87;;;14.70;99.90;;;;;;4913503;29;20494;-87
2022/10/06 08:15:08;;;;;;;9.70;7.47;;;14.80;99.90;;;;;;4913466;29;20498;-87
2022/10/06 08:17:36;;;;;;;17.73;8.07;;;14.80;99.90;;;;;;4916177;29;20534;-88
2022/10/06 08:20:03;;;;;;;12.80;7.50;;;14.80;99.90;;;;;;4921092;29;20444;-88
2022/10/06 08:22:30;;;;;;;12.37;7.80;;;14.90;99.90;;;;;;4937067;29;20535;-87
2022/10/06 08:24:57;;;;;;;11.80;7.17;;;15.00;99.90;;;;;;4938247;29;20482;-87
2022/10/06 08:27:25;;;;;;;15.23;8.17;;;15.00;99.90;;;;;;4932838;29;20440;-84
2022/10/06 08:29:53;;;;;;;14.17;7.67;;;15.00;99.90;;;;;;4941740;29;20526;-87
2022/10/06 08:32:20;;;;;;;17.97;7.87;;;15.00;99.90;;;;;;4941936;29;20515;-87
2022/10/06 08:34:48;;;;;;;17.13;8.50;;;15.10;99.90;;;;;;4917704;29;21012;-86
2022/10/06 08:37:15;;;;;;;18.70;8.93;;;15.10;99.90;;;;;;4887493;29;20961;-87
2022/10/06 08:39:42;;;;;;;15.23;8.97;;;15.10;99.90;;;;;;4879552;29;20510;-87
2022/10/06 08:42:15;;;;;;;11.30;8.90;;;15.10;99.90;;;;;;4877674;29;20485;-87
2022/10/06 08:44:47;;;;;;;12.57;8.40;;;15.20;99.90;;;;;;4877086;29;20460;-87
2022/10/06 08:47:18;;;;;;;18.40;9.47;;;15.20;99.90;;;;;;4877439;29;20458;-87
2022/10/06 08:49:47;;;;;;;17.67;9.57;;;15.30;99.90;;;;;;4877039;29;20449;-87
2022/10/06 08:52:41;;;;;;;15.50;8.63;;;15.30;99.90;;;;;;4876209;29;20849;-87
2022/10/06 08:55:16;;;;;;;12.60;7.80;;;15.40;99.90;;;;;;4876262;29;20576;-87
2022/10/06 08:57:56;;;;;;;8.47;5.70;;;15.30;99.90;;;;;;4876282;29;20433;-88
2022/10/06 09:00:23;;;;;;;8.90;5.53;;;15.40;99.90;;;;;;4876252;29;20433;-88
2022/10/06 09:02:52;;;;;;;13.40;5.87;;;15.40;99.90;;;;;;4875619;29;20497;-88
2022/10/06 09:05:24;;;;;;;8.70;4.50;;;15.50;99.90;;;;;;4875680;29;20464;-88
2022/10/06 09:07:59;;;;;;;10.17;4.90;;;15.50;99.90;;;;;;4876520;29;20457;-88
2022/10/06 09:10:40;;;;;;;6.53;4.07;;;15.60;99.90;;;;;;4876079;29;20456;-88
2022/10/06 09:13:10;;;;;;;4.90;3.30;;;15.60;99.90;;;;;;4876028;29;20430;-88
2022/10/06 09:15:41;;;;;;;6.80;3.17;;;15.70;99.90;;;;;;4875925;29;20992;-88
2022/10/06 09:18:17;;;;;;;5.57;2.57;;;15.70;99.90;;;;;;4879463;29;20463;-85
2022/10/06 09:20:50;;;;;;;4.40;3.10;;;15.80;99.90;;;;;;4886477;29;20498;-85
2022/10/06 09:23:46;;;;;;;7.33;2.70;;;15.80;99.90;;;;;;4891162;29;20586;-86
2022/10/06 09:26:05;;;;;;;4.23;1.90;;;15.90;99.90;;;;;;4889091;29;20456;-85
2022/10/06 09:28:32;;;;;;;9.37;2.00;;;16.00;99.90;;;;;;4890127;29;20870;-85
2022/10/06 09:31:01;;;;;;;4.43;1.90;;;16.00;99.90;;;;;;4890946;29;20488;-84
2022/10/06 09:33:37;;;;;;;6.50;2.10;;;16.10;99.90;;;;;;4891070;29;20527;-85
2022/10/06 09:36:08;;;;;;;4.57;1.73;;;16.10;99.90;;;;;;4890535;29;20490;-85
2022/10/06 09:38:52;;;;;;;5.83;2.43;;;16.20;99.90;;;;;;4891718;29;20457;-85
2022/10/06 09:41:22;;;;;;;5.83;2.17;;;16.30;99.90;;;;;;4890944;29;20485;-85
2022/10/06 09:43:54;;;;;;;3.40;1.83;;;16.30;99.90;;;;;;4890146;29;20481;-84
2022/10/06 09:46:31;;;;;;;8.07;2.77;;;16.40;99.90;;;;;;4890397;29;20489;-86
2022/10/06 09:49:18;;;;;;;6.43;2.00;;;16.40;99.90;;;;;;4888758;29;20468;-85
2022/10/06 09:51:59;;;;;;;5.97;2.10;;;16.40;99.90;;;;;;4890657;29;20517;-85
2022/10/06 09:54:28;;;;;;;4.07;2.13;;;16.40;99.90;;;;;;4888636;29;20473;-86
2022/10/06 09:56:57;;;;;;;4.63;2.73;;;16.50;99.90;;;;;;4887909;29;20471;-85
2022/10/06 09:59:30;;;;;;;7.20;2.97;;;16.50;99.90;;;;;;4883849;29;20500;-85
2022/10/06 10:01:58;;;;;;;5.93;2.47;;;16.60;99.90;;;;;;4875146;29;20504;-85
2022/10/06 10:04:30;;;;;;;7.10;2.47;;;16.70;99.90;;;;;;4874073;29;20483;-74
2022/10/06 10:07:15;;;;;;;5.37;2.60;;;16.70;99.90;;;;;;4872517;29;20521;-73
2022/10/06 10:09:42;;;;;;;8.57;2.33;;;16.70;99.90;;;;;;4871725;29;20445;-73
2022/10/06 10:12:26;;;;;;;9.90;2.50;;;16.70;99.90;;;;;;4872127;29;20504;-73
2022/10/06 10:14:56;;;;;;;4.33;2.17;;;16.80;99.90;;;;;;4871113;29;20500;-74
2022/10/06 10:17:32;;;;;;;8.50;2.40;;;16.90;99.90;;;;;;4872371;29;20472;-71
2022/10/06 10:20:02;;;;;;;6.80;2.50;;;17.10;99.90;;;;;;4872810;29;20916;-86
2022/10/06 10:22:35;;;;;;;5.80;2.30;;;17.20;99.90;;;;;;4875136;29;20866;-86
2022/10/06 10:25:14;;;;;;;4.83;2.03;;;17.30;99.90;;;;;;4875907;29;20441;-85
2022/10/06 10:27:55;;;;;;;10.03;4.47;;;17.40;99.90;;;;;;4875408;29;21229;-86
2022/10/06 10:30:22;;;;;;;5.20;2.00;;;17.60;99.90;;;;;;4873991;29;20472;-87
2022/10/06 10:32:56;;;;;;;3.67;2.40;;;17.60;99.90;;;;;;4875358;29;20453;-85
2022/10/06 10:35:28;;;;;;;9.57;2.10;;;17.60;99.90;;;;;;4873926;29;21187;-83
2022/10/06 10:38:01;;;;;;;8.53;2.00;;;17.60;99.90;;;;;;4874752;29;20437;-86
2022/10/06 10:40:36;;;;;;;5.40;2.03;;;17.60;99.90;;;;;;4874971;29;20450;-86
2022/10/06 10:43:17;;;;;;;4.93;2.00;;;17.60;99.90;;;;;;4873833;29;20452;-86
2022/10/06 10:45:47;;;;;;;5.57;2.30;;;17.60;99.90;;;;;;4873387;29;20457;-86
2022/10/06 10:48:19;;;;;;;8.43;3.33;;;17.60;99.90;;;;;;4874084;29;20465;-86
2022/10/06 10:51:05;;;;;;;6.53;1.80;;;17.60;99.90;;;;;;4873810;29;20493;-87
2022/10/06 10:53:40;;;;;;;6.47;2.00;;;17.60;99.90;;;;;;4873857;29;20430;-86
2022/10/06 10:56:09;;;;;;;6.07;2.23;;;17.60;99.90;;;;;;4873018;29;20828;-87
2022/10/06 10:58:38;;;;;;;8.43;2.30;;;17.70;99.90;;;;;;4874173;29;20455;-87
2022/10/06 11:01:15;;;;;;;5.47;2.20;;;17.80;99.90;;;;;;4873998;29;21211;-86
2022/10/06 11:03:42;;;;;;;7.03;2.20;;;18.00;99.90;;;;;;4874727;29;20476;-86
2022/10/06 11:06:29;;;;;;;5.73;2.27;;;18.10;99.90;;;;;;4874536;29;20460;-85
2022/10/06 11:09:01;;;;;;;4.43;2.03;;;18.40;99.90;;;;;;4875227;29;20476;-85
2022/10/06 11:11:44;;;;;;;7.27;1.97;;;18.60;99.90;;;;;;4876257;29;20540;-85
2022/10/06 11:14:21;;;;;;;7.33;2.00;;;18.70;99.90;;;;;;4888565;29;20491;-85
2022/10/06 11:16:57;;;;;;;6.03;1.90;;;18.70;99.90;;;;;;4912351;29;20824;-86
2022/10/06 11:19:34;;;;;;;9.07;2.10;;;18.70;99.90;;;;;;4912094;29;20447;-86
2022/10/06 11:22:09;;;;;;;4.83;1.70;;;18.80;99.90;;;;;;4912282;29;20475;-86
2022/10/06 11:24:44;;;;;;;4.70;2.03;;;18.90;99.90;;;;;;4912018;29;20819;-86
2022/10/06 11:27:26;;;;;;;8.67;2.20;;;18.90;99.90;;;;;;4915433;29;20454;-86
2022/10/06 11:30:03;;;;;;;7.33;2.40;;;19.00;99.90;;;;;;4916461;29;20424;-88
2022/10/06 11:32:39;;;;;;;4.00;1.83;;;19.10;99.90;;;;;;4918201;29;20490;-83
2022/10/06 11:35:18;;;;;;;5.63;1.97;;;19.30;99.90;;;;;;4917586;29;20450;-86
2022/10/06 11:37:50;;;;;;;3.90;1.90;;;19.40;99.90;;;;;;4924552;29;20930;-85
2022/10/06 11:40:32;;;;;;;5.20;1.90;;;19.50;99.90;;;;;;4934876;29;20473;-86
2022/10/06 11:43:05;;;;;;;9.00;2.63;;;19.40;99.90;;;;;;4934487;29;20448;-86
2022/10/06 11:45:40;;;;;;;6.63;2.13;;;19.50;99.90;;;;;;4922458;29;20506;-86
2022/10/06 11:48:23;;;;;;;7.80;2.03;;;19.60;99.90;;;;;;4915212;29;20453;-85
2022/10/06 11:50:54;;;;;;;8.10;2.13;;;19.70;99.90;;;;;;4914781;29;20470;-85
2022/10/06 11:53:37;;;;;;;3.27;1.90;;;19.90;99.90;;;;;;4914704;29;20944;-85
2022/10/06 11:56:38;;;;;;;5.13;1.87;;;20.10;99.90;;;;;;4913783;29;20487;-85
2022/10/06 11:59:25;;;;;;;6.67;1.83;;;20.00;99.90;;;;;;4911529;29;20469;-84
2022/10/06 12:01:57;;;;;;;3.73;1.80;;;20.10;99.90;;;;;;4912084;29;21003;-85
2022/10/06 12:04:26;;;;;;;6.80;2.10;;;20.20;99.90;;;;;;4913359;29;20504;-84
2022/10/06 12:07:04;;;;;;;4.10;1.90;;;20.60;99.90;;;;;;4914546;29;20463;-85
2022/10/06 12:09:48;;;;;;;6.73;1.97;;;20.60;99.90;;;;;;4914879;29;20451;-83
2022/10/06 12:12:44;;;;;;;7.13;1.63;;;20.70;99.90;;;;;;4914667;29;20479;-85
2022/10/06 12:15:29;;;;;;;7.23;1.87;;;21.00;99.90;;;;;;4914330;29;20443;-85
2022/10/06 12:18:00;;;;;;;6.07;1.90;;;21.10;99.90;;;;;;4914519;29;20447;-85
2022/10/06 12:20:49;;;;;;;4.43;1.57;;;21.20;99.90;;;;;;4914299;29;20462;-85
2022/10/06 12:23:28;;;;;;;5.17;1.67;;;21.20;99.90;;;;;;4914317;29;21262;-86
2022/10/06 12:26:00;;;;;;;5.20;2.13;;;21.10;99.90;;;;;;4913572;29;20474;-84
2022/10/06 12:28:34;;;;;;;6.27;1.60;;;21.00;99.90;;;;;;4914793;29;20467;-86
2022/10/06 12:31:20;;;;;;;3.90;1.40;;;20.90;99.90;;;;;;4912847;29;21003;-87
2022/10/06 12:33:49;;;;;;;5.67;1.63;;;20.90;99.90;;;;;;4914473;29;20443;-86
2022/10/06 12:36:19;;;;;;;6.37;1.40;;;20.90;99.90;;;;;;4913247;29;20550;-87
2022/10/06 12:39:04;;;;;;;6.27;1.30;;;21.00;99.90;;;;;;4914465;29;20450;-87
2022/10/06 12:42:01;;;;;;;3.20;1.47;;;21.00;99.90;;;;;;4914120;29;20546;-87
2022/10/06 12:44:31;;;;;;;4.60;1.40;;;20.60;99.90;;;;;;4912151;29;20555;-88
2022/10/06 12:47:02;;;;;;;2.40;1.30;;;20.30;99.90;;;;;;4912653;29;20452;-87
2022/10/06 12:49:47;;;;;;;4.30;1.57;;;20.10;99.90;;;;;;4913521;29;20452;-87
2022/10/06 12:52:43;;;;;;;6.83;1.63;;;20.00;99.90;;;;;;4913108;29;21174;-86
2022/10/06 12:55:31;;;;;;;5.50;1.60;;;19.90;99.90;;;;;;4900327;29;21026;-89
2022/10/06 12:58:00;;;;;;;5.30;1.67;;;19.90;99.90;;;;;;4913299;29;20815;-88
2022/10/06 13:00:36;;;;;;;3.57;1.33;;;19.90;99.90;;;;;;4913025;29;20901;-87
2022/10/06 13:03:06;;;;;;;5.03;1.60;;;19.80;99.90;;;;;;4912875;29;20459;-87
2022/10/06 13:05:35;;;;;;;7.63;1.50;;;19.80;99.90;;;;;;4912108;29;20452;-86
2022/10/06 13:08:04;;;;;;;5.10;1.57;;;19.80;99.90;;;;;;4913827;29;20444;-87
2022/10/06 13:10:32;;;;;;;5.13;1.77;;;19.80;99.90;;;;;;4912560;29;20887;-88
2022/10/06 13:13:01;;;;;;;6.83;1.67;;;19.70;99.90;;;;;;4912717;29;21048;-87
2022/10/06 13:15:29;;;;;;;6.60;1.90;;;19.70;99.90;;;;;;4911368;29;20459;-86
2022/10/06 13:17:59;;;;;;;4.47;1.60;;;19.70;99.90;;;;;;4912520;29;20455;-87
2022/10/06 13:20:36;;;;;;;5.87;1.87;;;19.70;99.90;;;;;;4912600;29;20450;-87
2022/10/06 13:23:06;;;;;;;2.40;1.50;;;19.70;99.90;;;;;;4912354;29;20423;-87
2022/10/06 13:25:36;;;;;;;2.23;1.30;;;19.70;99.90;;;;;;4910828;29;20538;-87
2022/10/06 13:28:04;;;;;;;5.40;2.13;;;19.60;99.90;;;;;;4911214;29;20455;-89
2022/10/06 13:30:31;;;;;;;5.77;1.90;;;19.60;99.90;;;;;;4913412;29;20473;-86
2022/10/06 13:32:59;;;;;;;7.63;2.10;;;19.60;99.90;;;;;;4913288;29;20450;-87
2022/10/06 13:35:26;;;;;;;4.60;1.90;;;19.60;99.90;;;;;;4910107;29;20463;-75
2022/10/06 13:37:54;;;;;;;8.80;1.60;;;19.50;99.90;;;;;;4909439;29;20558;-72
2022/10/06 13:40:30;;;;;;;8.23;1.70;;;19.30;99.90;;;;;;4913738;29;20548;-86
2022/10/06 13:42:59;;;;;;;7.73;1.50;;;19.30;99.90;;;;;;4916376;29;20821;-83
2022/10/06 13:45:28;;;;;;;8.37;1.80;;;19.30;99.90;;;;;;4915939;29;20463;-83
2022/10/06 13:48:07;;;;;;;20.30;2.10;;;19.30;99.90;;;;;;4915830;29;20451;-82
2022/10/06 13:50:35;;;;;;;6.00;1.73;;;19.20;99.90;;;;;;4911150;29;20475;-72
2022/10/06 13:53:02;;;;;;;7.43;1.63;;;19.20;99.90;;;;;;4916843;29;20467;-82
2022/10/06 13:55:30;;;;;;;6.83;1.93;;;19.20;99.90;;;;;;4916258;29;20463;-86
2022/10/06 13:58:08;;;;;;;4.63;1.60;;;19.20;99.90;;;;;;4916613;29;20499;-85
2022/10/06 14:00:54;;;;;;;4.63;1.60;;;19.30;99.90;;;;;;4917488;29;20495;-83
2022/10/06 14:03:24;;;;;;;5.90;1.60;;;19.40;99.90;;;;;;4916292;29;20972;-83
2022/10/06 14:05:52;;;;;;;4.37;1.70;;;19.50;99.90;;;;;;4915341;29;20486;-83
2022/10/06 14:08:24;;;;;;;6.20;1.60;;;19.80;99.90;;;;;;4916468;29;20570;-84
2022/10/06 14:10:54;;;;;;;9.23;2.10;;;19.90;99.90;;;;;;4916683;29;20490;-84
2022/10/06 14:13:25;;;;;;;5.30;1.70;;;20.00;99.90;;;;;;4916116;29;20452;-83
2022/10/06 14:15:57;;;;;;;6.20;2.33;;;20.20;99.90;;;;;;4915565;29;20475;-83
2022/10/06 14:18:27;;;;;;;7.53;2.20;;;20.20;99.90;;;;;;4916288;29;20452;-84
2022/10/06 14:20:55;;;;;;;14.00;1.80;;;20.30;99.90;;;;;;4916376;29;20559;-83
2022/10/06 14:23:50;;;;;;;4.03;1.30;;;20.40;99.90;;;;;;4917882;29;21230;-84
2022/10/06 14:26:19;;;;;;;4.90;1.70;;;20.60;99.90;;;;;;4918018;29;20440;-84
2022/10/06 14:28:50;;;;;;;4.20;1.73;;;20.80;99.90;;;;;;4918688;29;20570;-84
2022/10/06 14:31:18;;;;;;;7.67;1.70;;;21.00;99.90;;;;;;4918804;29;20555;-84
2022/10/06 14:33:47;;;;;;;7.90;1.87;;;21.10;99.90;;;;;;4918450;29;20459;-83
2022/10/06 14:36:17;;;;;;;4.07;1.57;;;21.20;99.90;;;;;;4918112;29;20502;-84
2022/10/06 14:38:46;;;;;;;4.93;1.87;;;21.30;99.90;;;;;;4918580;29;20448;-83
2022/10/06 14:41:13;;;;;;;8.67;1.90;;;21.20;99.90;;;;;;4919799;29;20507;-83
2022/10/06 14:43:40;;;;;;;9.10;1.70;;;21.20;99.90;;;;;;4909323;29;20543;-83
2022/10/06 14:46:10;;;;;;;5.17;1.70;;;21.10;99.90;;;;;;4900716;29;20475;-83
2022/10/06 14:48:38;;;;;;;7.03;1.90;;;21.20;99.90;;;;;;4908884;29;20504;-83
2022/10/06 14:51:06;;;;;;;20.03;2.60;;;21.30;99.90;;;;;;4901269;29;20567;-74
2022/10/06 14:53:33;;;;;;;6.63;1.63;;;21.40;99.90;;;;;;4890598;29;20564;-73
2022/10/06 14:56:04;;;;;;;4.30;1.60;;;21.50;99.90;;;;;;4897108;29;20559;-84
2022/10/06 14:58:31;;;;;;;2.80;1.30;;;21.70;99.90;;;;;;4899886;29;20467;-82
2022/10/06 15:01:04;;;;;;;13.10;3.03;;;21.80;99.90;;;;;;4904324;29;20838;-83
2022/10/06 15:03:31;;;;;;;4.97;1.60;;;22.00;99.90;;;;;;4900595;29;20449;-84
2022/10/06 15:08:51;;;;;;;66.47;16.77;;;22.30;99.90;;;;;;4909342;29;20439;-82
2022/10/06 15:11:18;;;;;;;38.33;11.43;;;22.40;99.90;;;;;;4903303;29;20526;-83
2022/10/06 15:13:45;;;;;;;5.80;2.47;;;22.50;99.90;;;;;;4895367;29;20460;-83
2022/10/06 15:16:12;;;;;;;3.83;1.60;;;22.50;99.90;;;;;;4897513;29;20467;-84
2022/10/06 15:18:40;;;;;;;4.20;1.63;;;22.40;99.90;;;;;;4895607;29;20468;-81
2022/10/06 15:21:09;;;;;;;4.40;1.30;;;22.30;99.90;;;;;;4898366;29;20575;-82
2022/10/06 15:23:37;;;;;;;12.63;2.17;;;22.30;99.90;;;;;;4897766;29;20468;-82
2022/10/06 15:29:02;;;;;;;6.73;1.80;;;22.40;99.90;;;;;;4896142;29;20444;-82
2022/10/06 15:31:32;;;;;;;7.60;1.80;;;22.50;99.90;;;;;;4898073;29;20486;-82
2022/10/06 15:34:00;;;;;;;4.07;1.43;;;22.60;99.90;;;;;;4897534;29;20519;-82
2022/10/06 15:36:31;;;;;;;6.30;1.80;;;22.70;99.90;;;;;;4897077;29;20499;-82
2022/10/06 15:38:59;;;;;;;7.53;2.30;;;22.80;99.90;;;;;;4897208;29;20460;-82
2022/10/06 15:41:26;;;;;;;7.87;2.30;;;22.70;99.90;;;;;;4897180;29;20488;-82
2022/10/06 15:43:57;;;;;;;4.20;2.20;;;22.60;99.90;;;;;;4894018;29;20482;-68
2022/10/06 15:46:25;;;;;;;10.93;3.50;;;22.50;99.90;;;;;;4893674;29;20440;-74
2022/10/06 15:48:53;;;;;;;6.53;3.72;;;22.40;99.90;;;;;;4893080;29;21005;-75
2022/10/06 15:51:21;;;;;;;9.33;2.80;;;22.50;99.90;;;;;;4893303;29;20255;-74
2022/10/06 15:53:50;;;;;;;5.23;2.10;;;22.50;99.90;;;;;;4893175;29;20504;-74
2022/10/06 15:56:17;;;;;;;4.63;1.40;;;22.50;99.90;;;;;;4894606;29;20470;-84
2022/10/06 15:58:44;;;;;;;7.50;2.13;;;22.30;99.90;;;;;;4897382;29;20460;-83
2022/10/06 16:01:27;;;;;;;6.23;1.70;;;22.10;99.90;;;;;;4897437;29;20498;-84
2022/10/06 16:03:55;;;;;;;5.00;1.63;;;21.80;99.90;;;;;;4897739;29;20456;-83
2022/10/06 16:06:38;;;;;;;7.93;1.97;;;21.50;99.90;;;;;;4895212;29;20567;-73
2022/10/06 16:09:07;;;;;;;6.40;1.90;;;21.20;99.90;;;;;;4898525;29;20500;-85
2022/10/06 16:11:33;;;;;;;4.87;1.80;;;21.00;99.90;;;;;;4897177;29;20544;-83
2022/10/06 16:14:00;;;;;;;6.87;2.27;;;20.90;99.90;;;;;;4897384;29;20479;-83
2022/10/06 16:16:27;;;;;;;4.17;2.00;;;20.70;99.90;;;;;;4897282;29;20987;-84
2022/10/06 16:18:55;;;;;;;3.23;1.40;;;20.60;99.90;;;;;;4898163;29;20468;-86
2022/10/06 16:21:21;;;;;;;5.03;2.17;;;20.50;99.90;;;;;;4898071;29;20495;-85
2022/10/06 16:23:52;;;;;;;6.40;2.00;;;20.30;99.90;;;;;;4898585;29;20551;-84
2022/10/06 16:26:22;;;;;;;4.87;2.07;;;20.20;99.90;;;;;;4897523;29;20448;-83
2022/10/06 16:28:49;;;;;;;3.63;2.00;;;20.10;99.90;;;;;;4899722;29;20468;-83
2022/10/06 16:31:16;;;;;;;5.23;2.10;;;20.00;99.90;;;;;;4898247;29;20515;-85
2022/10/06 16:33:44;;;;;;;6.47;2.60;;;19.90;99.90;;;;;;4899181;29;20510;-84
2022/10/06 16:36:11;;;;;;;7.63;2.27;;;19.70;99.90;;;;;;4900261;29;20527;-84
2022/10/06 16:38:38;;;;;;;4.40;2.13;;;19.60;99.90;;;;;;4899582;29;20869;-83
2022/10/06 16:41:06;;;;;;;9.77;2.70;;;19.40;99.90;;;;;;4897769;29;20490;-84
2022/10/06 16:43:35;;;;;;;5.37;2.20;;;19.30;99.90;;;;;;4897715;29;20500;-85
2022/10/06 16:46:04;;;;;;;7.50;2.43;;;19.20;99.90;;;;;;4897327;29;20474;-84
2022/10/06 16:48:32;;;;;;;3.03;1.80;;;19.10;99.90;;;;;;4897545;29;20904;-87
2022/10/06 16:51:03;;;;;;;4.13;1.57;;;19.00;99.90;;;;;;4897685;29;20480;-83
2022/10/06 16:53:34;;;;;;;5.60;1.87;;;18.80;99.90;;;;;;4899002;29;20986;-87
2022/10/06 16:56:01;;;;;;;8.73;1.90;;;18.70;99.90;;;;;;4899239;29;20943;-87
2022/10/06 16:58:34;;;;;;;3.40;1.73;;;18.60;99.90;;;;;;4899913;29;20566;-84
2022/10/06 17:01:02;;;;;;;4.47;1.93;;;18.50;99.90;;;;;;4900406;29;20495;-85
2022/10/06 17:03:31;;;;;;;5.80;2.10;;;18.40;99.90;;;;;;4900370;29;20464;-86
2022/10/06 17:06:07;;;;;;;5.97;2.13;;;18.30;99.90;;;;;;4899326;29;20492;-85
2022/10/06 17:08:34;;;;;;;3.43;1.83;;;18.20;99.90;;;;;;4901267;29;20472;-84
2022/10/06 17:11:03;;;;;;;4.27;1.63;;;18.10;99.90;;;;;;4901233;29;20488;-84
2022/10/06 17:13:30;;;;;;;5.30;2.00;;;18.00;99.90;;;;;;4899880;29;20571;-82
2022/10/06 17:15:58;;;;;;;9.73;2.80;;;18.00;99.90;;;;;;4905288;29;20478;-85
2022/10/06 17:18:26;;;;;;;5.50;2.40;;;17.90;99.90;;;;;;4905298;29;20492;-85
2022/10/06 17:20:55;;;;;;;9.70;2.07;;;17.80;99.90;;;;;;4903989;29;20488;-85
2022/10/06 17:23:22;;;;;;;8.37;2.73;;;17.70;99.90;;;;;;4901306;29;20566;-75
2022/10/06 17:26:02;;;;;;;6.33;2.47;;;17.60;99.90;;;;;;4890933;29;20469;-75